St. Catharines Fifth St

*Note: All times are displayed in the local standard time of the station location.
**Rain - Equipment is designed to accurately record liquid precipitation; under conditions when precipitation is not in liquid form, the data displayed may not properly reflect rainfall values.

Date Max Temp
(°C)
Min Temp
(°C)
Avg Temp
(°C)
Rain (mm) Avg RH (%)
Sun, May 19, 2019 30.5 7.1 17.3 - 70.1
Sat, May 18, 2019 17.0 3.6 10.9 - 72.4
Fri, May 17, 2019 19.7 9.4 15.3 - 66.1
Thu, May 16, 2019 17.7 4.7 12.3 - 74.3
Wed, May 15, 2019 21.5 5.1 11.8 - 75.4
Tue, May 14, 2019 13.6 4.6 8.1 - 84.0
Mon, May 13, 2019 10.1 5.4 6.6 - 94.7
DateTime Avg Temp (°C) Rain (mm) RH (%)
Mon, May 20, 2019 12:00 18.2 - 59.9
Mon, May 20, 2019 11:00 18.0 - 62.6
Mon, May 20, 2019 10:00 18.4 - 67.4
Mon, May 20, 2019 09:00 16.5 - 79.7
Mon, May 20, 2019 08:00 15.8 - 84.5
Mon, May 20, 2019 07:00 15.0 - 90.0
Mon, May 20, 2019 06:00 15.0 - 89.8
Mon, May 20, 2019 05:00 15.8 - 87.3
Mon, May 20, 2019 04:00 16.5 - 84.2
Mon, May 20, 2019 03:00 16.5 - 84.4
Mon, May 20, 2019 02:00 16.0 - 86.1
Mon, May 20, 2019 01:00 14.5 - 91.2
Mon, May 20, 2019 00:00 13.9 - 92.2
Sun, May 19, 2019 23:00 16.1 - 89.4
Sun, May 19, 2019 22:00 16.8 - 87.5
Sun, May 19, 2019 21:00 18.8 - 80.8
Sun, May 19, 2019 20:00 22.1 - 66.3
Sun, May 19, 2019 19:00 26.5 - 46.9
Sun, May 19, 2019 18:00 27.9 - 43.5
Sun, May 19, 2019 17:00 29.7 - 41.8
Sun, May 19, 2019 16:00 29.9 - 46.6
Sun, May 19, 2019 15:00 28.5 - 51.4
Sun, May 19, 2019 14:00 25.8 - 54.9
Sun, May 19, 2019 13:00 24.5 - 59.0
Sun, May 19, 2019 12:00 19.2 - 60.9
Sun, May 19, 2019 11:00 18.3 - 62.6
Sun, May 19, 2019 10:00 18.9 - 63.6
Sun, May 19, 2019 09:00 15.1 - 66.8
Sun, May 19, 2019 08:00 10.4 - 74.5
Sun, May 19, 2019 07:00 7.9 - 82.4
Sun, May 19, 2019 06:00 7.2 - 86.1
Sun, May 19, 2019 05:00 7.4 - 86.0
Sun, May 19, 2019 04:00 7.3 - 85.7
Sun, May 19, 2019 03:00 7.2 - 84.0
Sun, May 19, 2019 02:00 7.4 - 85.6
Sun, May 19, 2019 01:00 8.3 - 85.1
Sun, May 19, 2019 00:00 8.9 - 83.7
Sat, May 18, 2019 23:00 9.5 - 81.1
Sat, May 18, 2019 22:00 11.4 - 72.7
Sat, May 18, 2019 21:00 13.3 - 60.7
Sat, May 18, 2019 20:00 14.2 - 56.2
Sat, May 18, 2019 19:00 15.1 - 53.3
Sat, May 18, 2019 18:00 15.4 - 49.7
Sat, May 18, 2019 17:00 16.5 - 50.2
Sat, May 18, 2019 16:00 16.0 - 53.5
Sat, May 18, 2019 15:00 14.2 - 62.7
Sat, May 18, 2019 14:00 13.4 - 67.7
Sat, May 18, 2019 13:00 15.1 - 61.8


asterix Register now to access more data! asterix